createdAt,value
2024-05-09T00:01:56.948Z,6.20
2024-05-09T00:04:26.478Z,6.30
2024-05-09T00:06:55.943Z,5.80
2024-05-09T00:09:25.550Z,6.13
2024-05-09T00:11:55.156Z,6.10
2024-05-09T00:14:24.990Z,7.00
2024-05-09T00:16:57.243Z,6.55
2024-05-09T00:19:27.642Z,6.80
2024-05-09T00:21:57.148Z,6.85
2024-05-09T00:24:26.628Z,6.63
2024-05-09T00:26:56.057Z,6.60
2024-05-09T00:29:25.581Z,7.20
2024-05-09T00:31:57.846Z,6.90
2024-05-09T00:34:27.361Z,6.45
2024-05-09T00:36:56.913Z,7.20
2024-05-09T00:39:26.334Z,6.88
2024-05-09T00:41:55.889Z,7.18
2024-05-09T00:44:25.480Z,7.30
2024-05-09T00:46:56.242Z,5.60
2024-05-09T00:49:29.437Z,5.10
2024-05-09T00:51:59.450Z,5.43
2024-05-09T00:54:29.543Z,4.68
2024-05-09T00:56:59.021Z,4.70
2024-05-09T00:59:28.617Z,4.47
2024-05-09T01:01:58.147Z,4.47
2024-05-09T01:04:30.446Z,4.78
2024-05-09T01:06:59.973Z,4.00
2024-05-09T01:09:29.454Z,3.90
2024-05-09T01:11:58.942Z,4.25
2024-05-09T01:14:28.512Z,5.22
2024-05-09T01:16:58.127Z,4.72
2024-05-09T01:19:31.840Z,4.47
2024-05-09T01:22:01.391Z,4.25
2024-05-09T01:24:33.483Z,4.70
2024-05-09T01:27:02.968Z,4.63
2024-05-09T01:29:32.419Z,4.68
2024-05-09T01:32:04.540Z,4.28
2024-05-09T01:34:34.130Z,4.72
2024-05-09T01:37:03.604Z,4.88
2024-05-09T01:39:35.642Z,4.60
2024-05-09T01:42:05.152Z,4.38
2024-05-09T01:44:34.645Z,4.82
2024-05-09T01:47:04.131Z,5.05
2024-05-09T01:49:35.345Z,4.97
2024-05-09T01:52:04.966Z,5.05
2024-05-09T01:54:37.356Z,4.90
2024-05-09T01:57:07.047Z,5.57
2024-05-09T01:59:36.542Z,5.50
2024-05-09T02:02:06.207Z,6.10
2024-05-09T02:04:35.841Z,5.78
2024-05-09T02:07:05.381Z,6.30
2024-05-09T02:09:37.423Z,6.20
2024-05-09T02:12:07.365Z,5.82
2024-05-09T02:14:36.902Z,6.35
2024-05-09T02:17:06.542Z,6.30
2024-05-09T02:19:36.027Z,6.32
2024-05-09T02:22:05.483Z,6.72
2024-05-09T02:24:37.547Z,7.18
2024-05-09T02:27:07.306Z,6.72
2024-05-09T02:29:36.995Z,6.28
2024-05-09T02:32:06.754Z,6.07
2024-05-09T02:34:36.336Z,6.43
2024-05-09T02:37:05.893Z,7.18
2024-05-09T02:39:35.500Z,7.60
2024-05-09T02:42:04.930Z,7.45
2024-05-09T02:44:31.800Z,7.18
2024-05-09T02:47:01.357Z,5.82
2024-05-09T02:49:28.392Z,5.80
2024-05-09T02:51:57.953Z,5.55
2024-05-09T02:54:24.803Z,5.43
2024-05-09T02:56:56.914Z,5.13
2024-05-09T02:59:23.891Z,5.32
2024-05-09T03:01:53.539Z,4.50
2024-05-09T03:04:20.519Z,4.80
2024-05-09T03:06:50.054Z,4.55
2024-05-09T03:09:16.989Z,5.07
2024-05-09T03:11:46.548Z,5.25
2024-05-09T03:14:18.778Z,5.18
2024-05-09T03:16:48.532Z,5.25
2024-05-09T03:19:15.672Z,5.63
2024-05-09T03:21:45.189Z,5.38
2024-05-09T03:24:12.010Z,5.15
2024-05-09T03:26:41.460Z,4.93
2024-05-09T03:29:08.323Z,5.25
2024-05-09T03:31:41.240Z,5.07
2024-05-09T03:34:08.198Z,4.50
2024-05-09T03:36:37.690Z,4.55
2024-05-09T03:39:07.199Z,4.45
2024-05-09T03:41:36.779Z,4.15
2024-05-09T03:44:06.677Z,4.57
2024-05-09T03:46:40.000Z,4.45
2024-05-09T03:49:09.607Z,5.18
2024-05-09T03:51:36.446Z,4.13
2024-05-09T03:54:05.862Z,3.80
2024-05-09T03:56:33.951Z,4.38
2024-05-09T03:59:03.536Z,4.07
2024-05-09T04:01:30.495Z,5.60
2024-05-09T04:04:02.672Z,5.43
2024-05-09T04:06:29.505Z,4.90
2024-05-09T04:08:58.931Z,5.35
2024-05-09T04:11:25.864Z,4.50
2024-05-09T04:13:55.364Z,5.20
2024-05-09T04:16:22.960Z,5.28
2024-05-09T04:18:52.510Z,4.90
2024-05-09T04:21:22.017Z,5.22
2024-05-09T04:23:51.462Z,5.30
2024-05-09T04:26:18.334Z,5.22
2024-05-09T04:28:47.817Z,4.97
2024-05-09T04:31:14.654Z,4.07
2024-05-09T04:33:44.208Z,4.53
2024-05-09T04:36:11.112Z,3.75
2024-05-09T04:38:43.246Z,4.28
2024-05-09T04:41:10.151Z,4.15
2024-05-09T04:43:39.587Z,4.20
2024-05-09T04:46:06.396Z,4.38
2024-05-09T04:48:36.229Z,3.85
2024-05-09T04:51:03.440Z,4.13
2024-05-09T04:53:33.017Z,4.30
2024-05-09T04:56:02.797Z,3.80
2024-05-09T04:58:32.221Z,3.85
2024-05-09T05:00:59.115Z,3.97
2024-05-09T05:03:28.764Z,3.92
2024-05-09T05:05:55.974Z,4.28
2024-05-09T05:08:25.558Z,4.22
2024-05-09T05:10:53.108Z,4.63
2024-05-09T05:13:25.663Z,4.50
2024-05-09T05:15:53.727Z,4.57
2024-05-09T05:18:23.951Z,4.47
2024-05-09T05:20:51.461Z,4.78
2024-05-09T05:23:22.140Z,3.88
2024-05-09T05:25:49.587Z,4.40
2024-05-09T05:28:19.483Z,4.65
2024-05-09T05:30:49.108Z,4.03
2024-05-09T05:33:19.471Z,4.13
2024-05-09T05:35:46.874Z,3.65
2024-05-09T05:38:16.453Z,3.92
2024-05-09T05:40:43.384Z,3.97
2024-05-09T05:43:18.706Z,4.18
2024-05-09T05:45:48.192Z,3.67
2024-05-09T05:48:19.172Z,3.78
2024-05-09T05:50:46.422Z,4.63
2024-05-09T05:53:16.089Z,3.50
2024-05-09T05:55:42.970Z,3.65
2024-05-09T05:58:13.269Z,4.03
2024-05-09T06:00:41.221Z,3.78
2024-05-09T06:03:14.799Z,3.65
2024-05-09T06:05:43.932Z,3.75
2024-05-09T06:08:14.189Z,3.25
2024-05-09T06:10:41.991Z,3.85
2024-05-09T06:13:13.769Z,4.13
2024-05-09T06:15:41.539Z,3.97
2024-05-09T06:18:12.501Z,3.47
2024-05-09T06:20:43.973Z,3.45
2024-05-09T06:23:14.606Z,3.67
2024-05-09T06:25:42.186Z,3.47
2024-05-09T06:28:11.950Z,3.67
2024-05-09T06:30:42.107Z,3.70
2024-05-09T06:33:14.941Z,3.65
2024-05-09T06:35:46.045Z,4.00
2024-05-09T06:38:15.764Z,3.83
2024-05-09T06:40:44.055Z,3.63
2024-05-09T06:43:15.391Z,3.38
2024-05-09T06:45:43.796Z,3.90
2024-05-09T06:48:13.948Z,3.30
2024-05-09T06:50:41.308Z,3.47
2024-05-09T06:53:13.532Z,3.22
2024-05-09T06:55:40.532Z,3.88
2024-05-09T06:58:10.118Z,4.07
2024-05-09T07:00:39.961Z,3.70
2024-05-09T07:03:12.276Z,3.63
2024-05-09T07:05:40.736Z,3.80
2024-05-09T07:08:12.977Z,3.58
2024-05-09T07:10:39.902Z,4.03
2024-05-09T07:13:10.698Z,3.90
2024-05-09T07:15:37.855Z,4.72
2024-05-09T07:18:11.488Z,5.18
2024-05-09T07:20:38.678Z,4.65
2024-05-09T07:23:08.141Z,5.05
2024-05-09T07:25:37.899Z,4.78
2024-05-09T07:28:07.787Z,5.22
2024-05-09T07:30:35.207Z,5.95
2024-05-09T07:33:04.991Z,5.45
2024-05-09T07:35:32.260Z,4.45
2024-05-09T07:38:02.131Z,4.95
2024-05-09T07:40:35.519Z,4.65
2024-05-09T07:43:10.508Z,4.55
2024-05-09T07:45:48.570Z,4.90
2024-05-09T07:52:37.836Z,3.42
2024-05-09T07:53:46.557Z,3.45
2024-05-09T07:56:17.682Z,3.65
2024-05-09T07:58:50.142Z,3.60
2024-05-09T08:01:17.139Z,3.97
2024-05-09T08:03:47.532Z,3.75
2024-05-09T08:06:14.650Z,4.03
2024-05-09T08:08:44.175Z,4.03
2024-05-09T08:11:11.083Z,4.78
2024-05-09T08:13:40.543Z,4.68
2024-05-09T08:16:10.205Z,6.20
2024-05-09T08:18:39.999Z,5.72
2024-05-09T08:21:07.086Z,5.72
2024-05-09T08:23:36.661Z,5.90
2024-05-09T08:26:03.615Z,5.90
2024-05-09T08:28:33.114Z,6.20
2024-05-09T08:31:02.403Z,5.07
2024-05-09T08:33:36.938Z,5.32
2024-05-09T08:36:04.194Z,5.43
2024-05-09T08:38:33.595Z,5.88
2024-05-09T08:41:03.132Z,6.03
2024-05-09T08:43:33.235Z,5.75
2024-05-09T08:46:00.218Z,5.80
2024-05-09T08:48:29.991Z,5.78
2024-05-09T08:51:01.482Z,5.55
2024-05-09T08:53:30.945Z,5.45
2024-05-09T08:56:00.861Z,6.28
2024-05-09T08:58:31.645Z,6.22
2024-05-09T09:01:00.237Z,6.22
2024-05-09T09:03:32.646Z,5.93
2024-05-09T09:06:03.977Z,6.68
2024-05-09T09:08:33.485Z,6.60
2024-05-09T09:11:00.374Z,6.72
2024-05-09T09:13:30.520Z,6.47
2024-05-09T09:15:59.125Z,6.70
2024-05-09T09:18:30.074Z,6.75
2024-05-09T09:20:57.640Z,6.50
2024-05-09T09:23:30.813Z,6.90
2024-05-09T09:25:58.674Z,6.82
2024-05-09T09:28:28.159Z,6.78
2024-05-09T09:31:00.932Z,6.75
2024-05-09T09:33:31.384Z,6.18
2024-05-09T09:35:58.438Z,6.93
2024-05-09T09:38:33.286Z,6.15
2024-05-09T09:41:01.168Z,6.53
2024-05-09T09:43:30.858Z,5.35
2024-05-09T09:45:59.918Z,5.95
2024-05-09T09:48:30.079Z,5.55
2024-05-09T09:50:57.262Z,4.60
2024-05-09T09:53:30.553Z,5.18
2024-05-09T09:55:57.768Z,5.20
2024-05-09T09:58:27.746Z,5.43
2024-05-09T10:00:54.852Z,4.82
2024-05-09T10:03:24.485Z,5.25
2024-05-09T10:05:52.888Z,5.50
2024-05-09T10:08:22.493Z,5.40
2024-05-09T10:10:52.275Z,5.78
2024-05-09T10:13:22.308Z,5.38
2024-05-09T10:15:51.278Z,5.60
2024-05-09T10:18:27.129Z,5.63
2024-05-09T10:20:56.293Z,5.47
2024-05-09T10:23:26.729Z,5.25
2024-05-09T10:26:00.533Z,4.97
2024-05-09T10:28:30.317Z,4.55
2024-05-09T10:31:06.695Z,5.72
2024-05-09T10:33:40.164Z,5.55
2024-05-09T10:36:13.540Z,5.55
2024-05-09T10:38:43.484Z,4.50
2024-05-09T10:41:13.098Z,5.75
2024-05-09T10:43:43.282Z,5.00
2024-05-09T10:46:10.865Z,5.03
2024-05-09T10:48:40.822Z,4.32
2024-05-09T10:51:08.111Z,4.60
2024-05-09T10:53:43.099Z,4.35
2024-05-09T10:56:10.376Z,3.88
2024-05-09T10:58:42.427Z,3.88
2024-05-09T11:01:10.047Z,4.40
2024-05-09T11:03:40.414Z,4.65
2024-05-09T11:06:07.777Z,4.60
2024-05-09T11:08:37.773Z,4.45
2024-05-09T11:11:07.675Z,4.57
2024-05-09T11:13:38.380Z,4.25
2024-05-09T11:16:16.886Z,4.10
2024-05-09T11:18:46.774Z,3.85
2024-05-09T11:21:14.124Z,3.85
2024-05-09T11:23:43.766Z,4.00
2024-05-09T11:26:11.295Z,3.75
2024-05-09T11:28:40.754Z,3.75
2024-05-09T11:31:10.975Z,3.72
2024-05-09T11:33:41.192Z,3.92
2024-05-09T11:36:08.621Z,3.85
2024-05-09T11:38:38.147Z,3.58
2024-05-09T11:41:05.224Z,3.28
2024-05-09T11:43:34.783Z,3.40
2024-05-09T11:46:02.901Z,3.55
2024-05-09T11:48:35.611Z,3.20
2024-05-09T11:51:02.535Z,3.00
2024-05-09T11:53:31.924Z,3.63
2024-05-09T11:55:58.845Z,2.92
2024-05-09T11:58:29.831Z,3.50
2024-05-09T12:00:57.224Z,2.92
2024-05-09T12:03:26.849Z,3.38
2024-05-09T12:05:56.619Z,3.05
2024-05-09T12:08:26.178Z,3.40
2024-05-09T12:10:53.495Z,2.92
2024-05-09T12:13:23.403Z,3.15
2024-05-09T12:15:50.343Z,3.17
2024-05-09T12:18:19.912Z,3.10
2024-05-09T12:20:46.805Z,3.20
2024-05-09T12:23:18.918Z,3.03
2024-05-09T12:25:45.825Z,3.10
2024-05-09T12:28:15.401Z,3.00
2024-05-09T12:30:42.584Z,3.83
2024-05-09T12:33:13.195Z,3.22
2024-05-09T12:35:41.773Z,3.05
2024-05-09T12:38:12.570Z,3.17
2024-05-09T12:40:42.340Z,3.33
2024-05-09T12:43:12.223Z,2.97
2024-05-09T12:45:39.931Z,2.83
2024-05-09T12:48:12.193Z,2.70
2024-05-09T12:50:39.931Z,3.20
2024-05-09T12:53:09.480Z,3.22
2024-05-09T12:55:44.174Z,2.80
2024-05-09T12:58:24.880Z,3.05
2024-05-09T13:00:52.451Z,2.45
2024-05-09T13:03:22.366Z,2.95
2024-05-09T13:05:49.874Z,2.28
2024-05-09T13:08:19.514Z,2.70
2024-05-09T13:10:46.654Z,2.40
2024-05-09T13:13:16.352Z,2.40
2024-05-09T13:15:46.060Z,2.42
2024-05-09T13:18:15.664Z,2.42
2024-05-09T13:20:42.513Z,2.50
2024-05-09T13:23:11.945Z,2.60
2024-05-09T13:25:38.856Z,2.30
2024-05-09T13:28:08.771Z,2.20
2024-05-09T13:30:40.286Z,2.50
2024-05-09T13:33:14.675Z,2.15
2024-05-09T13:35:46.885Z,2.15
2024-05-09T13:38:19.936Z,2.15
2024-05-09T13:40:47.605Z,2.35
2024-05-09T13:43:18.019Z,2.17
2024-05-09T13:45:45.220Z,2.20
2024-05-09T13:48:17.576Z,1.98
2024-05-09T13:50:44.522Z,2.45
2024-05-09T13:53:13.992Z,2.30
2024-05-09T13:55:41.004Z,2.38
2024-05-09T13:58:10.632Z,2.38
2024-05-09T14:00:44.965Z,2.20
2024-05-09T14:03:21.444Z,2.35
2024-05-09T14:05:52.302Z,2.33
2024-05-09T14:08:21.441Z,2.10
2024-05-09T14:10:52.223Z,2.15
2024-05-09T14:13:19.652Z,2.30
2024-05-09T14:15:49.611Z,2.20
2024-05-09T14:18:19.527Z,2.30
2024-05-09T14:20:49.047Z,2.63
2024-05-09T14:23:17.720Z,2.55
2024-05-09T14:25:50.119Z,2.20
2024-05-09T14:28:19.253Z,2.65
2024-05-09T14:30:48.891Z,2.55
2024-05-09T14:33:20.629Z,2.40
2024-05-09T14:35:52.847Z,2.60
2024-05-09T14:38:19.657Z,2.33
2024-05-09T14:40:50.466Z,2.58
2024-05-09T14:43:17.862Z,2.72
2024-05-09T14:45:47.500Z,2.55
2024-05-09T14:48:15.361Z,2.83
2024-05-09T14:50:45.055Z,2.08
2024-05-09T14:53:14.584Z,2.33
2024-05-09T14:55:44.448Z,2.28
2024-05-09T14:58:12.213Z,2.40
2024-05-09T15:00:47.905Z,2.42
2024-05-09T15:03:17.978Z,2.50
2024-05-09T15:05:47.943Z,2.53
2024-05-09T15:08:18.357Z,2.40
2024-05-09T15:10:49.984Z,2.47
2024-05-09T15:13:17.559Z,2.35
2024-05-09T15:15:47.223Z,2.75
2024-05-09T15:18:14.563Z,2.63
2024-05-09T15:20:44.766Z,2.38
2024-05-09T15:23:11.856Z,2.40
2024-05-09T15:25:44.611Z,2.70
2024-05-09T15:28:11.585Z,2.00
2024-05-09T15:30:45.417Z,2.38
2024-05-09T15:33:13.643Z,2.17
2024-05-09T15:35:44.373Z,2.40
2024-05-09T15:38:11.347Z,2.22
2024-05-09T15:40:41.340Z,2.30
2024-05-09T15:43:11.734Z,2.13
2024-05-09T15:45:41.954Z,2.40
2024-05-09T15:48:09.727Z,2.22
2024-05-09T15:50:42.002Z,2.60
2024-05-09T15:53:10.425Z,2.17
2024-05-09T15:55:40.239Z,2.33
2024-05-09T15:58:07.795Z,2.22
2024-05-09T16:00:42.610Z,2.10
2024-05-09T16:03:12.503Z,2.33
2024-05-09T16:05:43.446Z,2.50
2024-05-09T16:08:10.747Z,2.25
2024-05-09T16:10:44.208Z,2.65
2024-05-09T16:13:12.286Z,2.30
2024-05-09T16:15:45.506Z,2.30
2024-05-09T16:18:12.949Z,2.28
2024-05-09T16:20:44.211Z,2.65
2024-05-09T16:23:12.864Z,2.55
2024-05-09T16:25:45.149Z,2.60
2024-05-09T16:28:12.197Z,2.90
2024-05-09T16:30:44.486Z,2.70
2024-05-09T16:33:12.027Z,2.50
2024-05-09T16:35:41.899Z,2.88
2024-05-09T16:38:09.097Z,2.97
2024-05-09T16:40:40.885Z,2.92
2024-05-09T16:43:08.835Z,2.75
2024-05-09T16:45:38.540Z,2.55
2024-05-09T16:48:08.921Z,2.80
2024-05-09T16:50:38.950Z,2.88
2024-05-09T16:53:06.761Z,2.90
2024-05-09T16:55:36.918Z,2.92
2024-05-09T16:58:04.903Z,2.53
2024-05-09T17:00:40.757Z,2.33
2024-05-09T17:03:14.788Z,2.53
2024-05-09T17:05:46.436Z,2.78
2024-05-09T17:08:15.258Z,2.58
2024-05-09T17:10:44.880Z,2.95
2024-05-09T17:13:14.460Z,2.67
2024-05-09T17:15:44.146Z,2.50
2024-05-09T17:18:13.939Z,2.60
2024-05-09T17:20:43.422Z,3.10
2024-05-09T17:23:13.684Z,2.72
2024-05-09T17:25:44.140Z,2.92
2024-05-09T17:28:11.612Z,2.72
2024-05-09T17:30:42.622Z,2.58
2024-05-09T17:33:11.140Z,2.28
2024-05-09T17:35:45.884Z,2.58
2024-05-09T17:38:13.127Z,2.95
2024-05-09T17:40:42.606Z,2.85
2024-05-09T17:43:10.691Z,3.03
2024-05-09T17:45:41.604Z,2.72
2024-05-09T17:48:09.693Z,2.85
2024-05-09T17:50:40.104Z,2.50
2024-05-09T17:53:10.691Z,2.60
2024-05-09T17:55:40.824Z,2.53
2024-05-09T17:58:07.994Z,3.08
2024-05-09T18:00:40.727Z,2.60
2024-05-09T18:03:10.674Z,2.80
2024-05-09T18:05:40.626Z,2.42
2024-05-09T18:08:10.535Z,2.67
2024-05-09T18:10:40.662Z,2.85
2024-05-09T18:13:08.506Z,2.67
2024-05-09T18:15:38.951Z,3.17
2024-05-09T18:18:06.967Z,3.25
2024-05-09T18:20:42.507Z,2.78
2024-05-09T18:23:16.628Z,2.50
2024-05-09T18:25:47.932Z,2.50
2024-05-09T18:28:15.236Z,2.55
2024-05-09T18:30:44.915Z,2.50
2024-05-09T18:33:12.555Z,2.58
2024-05-09T18:35:43.822Z,2.42
2024-05-09T18:38:10.707Z,2.38
2024-05-09T18:40:44.732Z,2.33
2024-05-09T18:43:14.007Z,3.00
2024-05-09T18:45:43.734Z,3.30
2024-05-09T18:48:11.247Z,2.83
2024-05-09T18:50:41.808Z,2.38
2024-05-09T18:53:09.902Z,2.70
2024-05-09T18:55:39.689Z,2.33
2024-05-09T18:58:09.324Z,2.72
2024-05-09T19:00:41.495Z,2.40
2024-05-09T19:03:13.207Z,2.50
2024-05-09T19:05:45.378Z,2.50
2024-05-09T19:08:13.253Z,2.60
2024-05-09T19:10:42.843Z,2.65
2024-05-09T19:13:13.922Z,2.78
2024-05-09T19:15:44.747Z,2.67
2024-05-09T19:18:12.710Z,2.60
2024-05-09T19:20:42.709Z,2.28
2024-05-09T19:23:10.850Z,2.60
2024-05-09T19:25:40.323Z,2.72
2024-05-09T19:28:07.392Z,3.47
2024-05-09T19:30:42.121Z,3.20
2024-05-09T19:33:11.164Z,3.05
2024-05-09T19:35:41.871Z,2.50
2024-05-09T19:38:08.737Z,2.45
2024-05-09T19:40:38.318Z,2.40
2024-05-09T19:43:06.292Z,2.75
2024-05-09T19:45:36.680Z,2.40
2024-05-09T19:48:07.109Z,2.30
2024-05-09T19:50:42.225Z,2.47
2024-05-09T19:53:11.666Z,2.45
2024-05-09T19:55:41.442Z,2.33
2024-05-09T19:58:08.794Z,2.70
2024-05-09T20:00:41.492Z,2.65
2024-05-09T20:03:14.480Z,2.42
2024-05-09T20:05:45.238Z,2.78
2024-05-09T20:08:12.575Z,2.40
2024-05-09T20:10:42.121Z,2.83
2024-05-09T20:13:09.316Z,2.45
2024-05-09T20:15:39.910Z,2.28
2024-05-09T20:18:07.540Z,2.53
2024-05-09T20:20:42.673Z,2.92
2024-05-09T20:23:11.852Z,2.35
2024-05-09T20:25:41.363Z,2.65
2024-05-09T20:28:08.315Z,2.30
2024-05-09T20:30:38.288Z,2.40
2024-05-09T20:33:07.093Z,2.33
2024-05-09T20:35:40.633Z,2.75
2024-05-09T20:38:07.674Z,2.75
2024-05-09T20:40:39.132Z,2.33
2024-05-09T20:43:07.982Z,2.70
2024-05-09T20:45:37.801Z,2.65
2024-05-09T20:48:05.503Z,2.50
2024-05-09T20:50:39.541Z,2.60
2024-05-09T20:53:12.141Z,2.33
2024-05-09T20:55:42.180Z,2.50
2024-05-09T20:58:09.624Z,2.33
2024-05-09T21:00:42.861Z,2.47
2024-05-09T21:03:12.608Z,2.90
2024-05-09T21:05:42.709Z,2.53
2024-05-09T21:08:12.470Z,2.72
2024-05-09T21:10:42.112Z,2.60
2024-05-09T21:13:09.038Z,3.00
2024-05-09T21:15:38.537Z,2.78
2024-05-09T21:18:05.651Z,2.47
2024-05-09T21:20:35.484Z,2.38
2024-05-09T21:23:02.780Z,2.88
2024-05-09T21:25:35.205Z,2.40
2024-05-09T21:28:03.331Z,2.65
2024-05-09T21:30:40.646Z,2.72
2024-05-09T21:33:11.685Z,2.60
2024-05-09T21:35:43.007Z,2.90
2024-05-09T21:38:10.264Z,2.88
2024-05-09T21:40:42.548Z,3.00
2024-05-09T21:43:09.732Z,2.83
2024-05-09T21:45:39.396Z,2.95
2024-05-09T21:48:07.188Z,2.75
2024-05-09T21:50:40.919Z,2.63
2024-05-09T21:53:09.479Z,2.72
2024-05-09T21:55:39.016Z,2.90
2024-05-09T21:58:08.608Z,2.80
2024-05-09T22:00:39.408Z,3.40
2024-05-09T22:03:07.709Z,3.17
2024-05-09T22:05:38.220Z,2.90
2024-05-09T22:08:05.523Z,2.90
2024-05-09T22:10:36.596Z,3.47
2024-05-09T22:13:04.879Z,3.00
2024-05-09T22:15:39.071Z,3.15
2024-05-09T22:18:07.299Z,3.28
2024-05-09T22:20:39.433Z,2.95
2024-05-09T22:23:06.899Z,3.10
2024-05-09T22:25:36.619Z,2.95
2024-05-09T22:28:04.086Z,3.65
2024-05-09T22:30:37.763Z,3.30
2024-05-09T22:33:11.167Z,3.05
2024-05-09T22:35:41.596Z,3.30
2024-05-09T22:38:08.837Z,2.85
2024-05-09T22:40:46.674Z,2.83
2024-05-09T22:43:16.970Z,2.78
2024-05-09T22:45:46.798Z,3.10
2024-05-09T22:48:16.463Z,2.90
2024-05-09T22:50:45.963Z,3.22
2024-05-09T22:53:12.792Z,2.88
2024-05-09T22:55:42.477Z,2.92
2024-05-09T22:58:09.369Z,3.53
2024-05-09T23:00:39.082Z,2.95
2024-05-09T23:03:06.339Z,3.15
2024-05-09T23:05:38.581Z,3.38
2024-05-09T23:08:05.641Z,3.08
2024-05-09T23:10:37.660Z,3.10
2024-05-09T23:13:05.526Z,3.20
2024-05-09T23:15:35.309Z,3.25
2024-05-09T23:18:02.390Z,3.15
2024-05-09T23:20:37.446Z,3.30
2024-05-09T23:23:10.632Z,3.17
2024-05-09T23:25:41.567Z,3.22
2024-05-09T23:28:09.028Z,3.42
2024-05-09T23:30:40.757Z,3.35
2024-05-09T23:33:09.544Z,3.17
2024-05-09T23:35:39.454Z,2.90
2024-05-09T23:38:08.922Z,2.97
2024-05-09T23:40:40.814Z,3.60
2024-05-09T23:43:09.327Z,3.17
2024-05-09T23:45:39.175Z,3.30
2024-05-09T23:48:06.722Z,3.10
2024-05-09T23:50:38.389Z,3.35
2024-05-09T23:53:10.372Z,3.63
2024-05-09T23:55:40.557Z,2.97
2024-05-09T23:58:07.689Z,3.40
